Brasstown, NC (28902)

9:11 AM EDT on July 27, 2016 (GMT -0400)
Elevation 1780 | | Change Station

Elev 1780 ft 35.02 °N, 83.97 °W | Updated 9 minutes ago

Mostly Cloudy
Mostly Cloudy
70.9 °F
Feels Like 70.9 °F
N
0.0
Wind Variable Wind from NNW
Gusts 2.0 mph

Today
High -- | Low -- °F
--% Chance of Precip.
Yesterday
High -- | Low -- °F
Precip. -- in
Pressure 30.13 in
Visibility 5.0 miles
Clouds Mostly Cloudy 200 ft
Dew Point 69 °F
Humidity 93%
Rainfall 0.00 in
Snow Depth Not available.
6:41 AM 8:42 PM
Last Quarter, 43% visible
METAR KRHP 271300Z AUTO 00000KT 5SM BR BKN002 22/22 A3013 RMK AO2 T02200220
Pressure 30.13 in
Visibility 5.0 miles
Clouds Mostly Cloudy 200 ft
Dew Point 69 °F
Humidity 93%
Rainfall 0.00 in
Snow Depth Not available.
6:41 AM 8:42 PM
Last Quarter, 43% visible
METAR KRHP 271300Z AUTO 00000KT 5SM BR BKN002 22/22 A3013 RMK AO2 T02200220

10-Day Weather Forecast

Almanac

Astronomy

Jul. 27, 2016 Rise Set
Actual Time
Civil Twilight
Nautical Twilight
Astronomical Twilight
Moon
Length of Visible Light
Length of Day
Tomorrow will be .
, % of the Moon is Illuminated

Today's Extremes

State Highs State Lows

Community

WunderPhotos

Upload Photos

1,927,842 photos uploaded!

WunderBlog® & News

Nearby

Air Quality

  Air Quality AQ Index Pollutant
Not available.

Snow Depth

Station Depth Elevation

Earthquake Activity

City Distance Mag. Time & Date
Minimum magnitude displayed is 2.5.

Coastal Water Temperatures

Place Temperature

Stations

Nearby Weather Stations

Station Location Temp. Windchill Dew Point Humidity Wind Precip. Elev Updated Type
                   

Watches & Warnings

There are currently no watches in effect.